LFPB/LBG METAR and TAF weather

Enter ICAO airport designator
Station Type Date Time Source
LFPB METAR 2019/02/16 08:00 UTC NOAA

LFPB 160800Z AUTO 09004KT 3900 BR NSC 02/01 Q1027 BECMG 9999 NSW


Station Type Date Time Source
LFPB Decoded METAR 2019/02/16 08:00 UTC NOAA

Paris / Le Bourget, France (LFPB) 48-58N 002-27E 65M
Feb 16, 2019 - 03:00 AM EST / 2019.02.16 0800 UTC
Wind: from the E (090 degrees) at 5 MPH (4 KT):0
Visibility: 2 mile(s):0
Weather: mist
Temperature: 35 F (2 C)
Windchill: 30 F (-1 C):1
Dew Point: 33 F (1 C)
Relative Humidity: 93%
Pressure (altimeter): 30.33 in. Hg (1027 hPa)
ob: LFPB 160800Z AUTO 09004KT 3900 BR NSC 02/01 Q1027 BECMG 9999 NSW
cycle: 8

Station Type Date Time Source
LFPB TAF 2019/02/16 06:21 UTC NOAA

TAF LFPB 160500Z 1606/1706 14005KT 3000 BR NSC
TEMPO 1606/1609 1200 BR PROB30
TEMPO 1607/1609 0800 FG
BECMG 1609/1611 CAVOK PROB40
TEMPO 1703/1706 3000 BR


Example: see airport list